Data for 09/17/2008

Time Sea-Level Adjusted Pressure Absolute Pressure Temperature Relative Humidity Dew Point   
(mb) (inHg) (mb) (inHg) (C) (F) (%) (C) (F)
00:05 1023 30.21 852 25.16 14.8 58.7 31 -2.2 28
00:10 1023 30.21 852 25.16 15 59 31 -1.7 28.9
00:15 1023 30.21 852 25.16 14.5 58.1 33 -1.6 29.2
00:20 1023 30.21 852 25.16 14 57.2 33 -1.8 28.7
00:25 1023 30.21 852 25.16 14 57.3 32 -2.4 27.8
00:30 1023 30.21 852 25.16 14.2 57.5 32 -2.2 28
00:35 1023 30.21 852 25.16 14 57.2 33 -2 28.5
00:40 1023 30.21 852 25.16 14.1 57.3 32 -2.2 28
00:45 1023 30.21 852 25.16 14 57.1 33 -1.9 28.7
00:50 1023 30.21 852 25.16 13.5 56.3 35 -1.6 29
00:55 1023 30.21 852 25.16 13.6 56.4 33 -2.5 27.4
01:00 1023 30.21 852 25.16 13.8 56.8 34 -1.9 28.6
01:05 1022 30.18 852 25.16 13.5 56.3 33 -2.2 28
01:10 1022 30.18 852 25.16 13.5 56.3 32 -3 26.7
01:15 1022 30.18 852 25.16 14 57.3 33 -2.1 28.3
01:20 1022 30.18 852 25.16 13.6 56.5 32 -2.7 27.2
01:25 1022 30.18 852 25.16 13.8 56.8 32 -2.6 27.3
01:30 1023 30.21 852 25.16 13.4 56.1 35 -1.8 28.7
01:35 1023 30.21 852 25.16 13 55.3 35 -2.2 28.1
01:40 1022 30.18 852 25.16 12.8 55 35 -2.4 27.7
01:45 1022 30.18 852 25.16 12.8 55 35 -2.4 27.8
01:50 1022 30.18 852 25.16 12.7 54.9 35 -2.1 28.2
01:55 1022 30.18 852 25.16 12.4 54.4 35 -2.6 27.3
02:00 1022 30.18 852 25.16 12.8 55 35 -2.2 28
02:05 1022 30.18 852 25.16 12.7 54.8 33 -3.1 26.4
02:10 1022 30.18 852 25.16 13.1 55.5 34 -2.4 27.7
02:15 1022 30.18 852 25.16 12.6 54.7 36 -2 28.3
02:20 1022 30.18 852 25.16 12.4 54.3 34 -2.9 26.7
02:25 1022 30.18 852 25.16 12.9 55.3 34 -2.5 27.6
02:30 1022 30.18 852 25.16 13 55.3 33 -2.9 26.8
02:35 1022 30.18 852 25.16 13.4 56.1 31 -3.2 26.2
02:40 1022 30.18 852 25.16 13.6 56.5 32 -2.7 27.1
02:45 1022 30.18 851 25.13 13.5 56.4 32 -2.8 26.9
02:50 1022 30.18 851 25.13 13.4 56 33 -2.7 27.1
02:55 1022 30.18 852 25.16 13.3 55.9 32 -2.8 26.9
03:00 1022 30.18 851 25.13 13.2 55.8 33 -2.7 27.1
03:05 1022 30.18 851 25.13 13.1 55.7 34 -2.3 27.9
03:10 1022 30.18 851 25.13 12.9 55.2 34 -2.7 27.1
03:15 1022 30.18 851 25.13 13 55.5 33 -2.9 26.8
03:20 1022 30.18 851 25.13 13.2 55.8 33 -2.5 27.6
03:25 1022 30.18 851 25.13 12.9 55.2 34 -2.6 27.3
03:30 1022 30.18 851 25.13 12.9 55.1 33 -2.8 27
03:35 1022 30.18 851 25.13 13.2 55.8 33 -2.8 27
03:40 1022 30.18 851 25.13 13.3 55.9 32 -2.9 26.8
03:45 1022 30.18 851 25.13 13 55.3 35 -2.1 28.3
03:50 1022 30.18 851 25.13 13 55.4 34 -2.6 27.4
03:55 1022 30.18 851 25.13 12.9 55.1 32 -3.3 26.1
04:00 1022 30.18 851 25.13 13.4 56.1 33 -2.7 27.2
04:05 1022 30.18 851 25.13 13.1 55.6 33 -2.6 27.4
04:10 1022 30.18 851 25.13 12.8 55 36 -2 28.4
04:15 1022 30.18 851 25.13 12.5 54.5 37 -1.7 28.9
04:20 1022 30.18 851 25.13 12.6 54.6 35 -2.3 27.9
04:25 1022 30.18 852 25.16 12.7 54.8 37 -1.6 29.1
04:30 1022 30.18 852 25.16 12.5 54.5 35 -2.5 27.6
04:35 1022 30.18 852 25.16 12.5 54.6 37 -1.5 29.2
04:40 1022 30.18 852 25.16 12 53.6 39 -1.5 29.3
04:45 1022 30.18 852 25.16 11.7 53.1 39 -1.6 29.1
04:50 1022 30.18 852 25.16 11.9 53.4 41 -1 30.2
04:55 1022 30.18 852 25.16 11.3 52.4 41 -1.4 29.4
05:00 1022 30.18 852 25.16 11 51.8 43 -1.2 29.9
05:05 1022 30.18 852 25.16 10.2 50.4 46 -0.9 30.4
05:10 1022 30.18 852 25.16 10.3 50.5 44 -1.5 29.2
05:15 1022 30.18 852 25.16 10.7 51.2 43 -1.4 29.6
05:20 1022 30.18 852 25.16 10.8 51.4 40 -2.1 28.3
05:25 1022 30.18 852 25.16 11.3 52.4 41 -1.4 29.4
05:30 1022 30.18 852 25.16 10.7 51.3 44 -1 30.1
05:35 1022 30.18 852 25.16 10.2 50.3 44 -1.5 29.3
05:40 1022 30.18 852 25.16 10.9 51.7 38 -2.7 27.1
05:45 1022 30.18 852 25.16 11.7 53.1 38 -2.2 28
05:50 1022 30.18 852 25.16 12 53.6 36 -2.5 27.5
05:55 1022 30.18 852 25.16 11.9 53.4 38 -1.9 28.7
06:00 1022 30.18 852 25.16 10.6 51 45 -0.9 30.4
06:05 1022 30.18 852 25.16 10.3 50.6 40 -2.5 27.5
06:10 1022 30.18 852 25.16 11 51.8 41 -1.8 28.8
06:15 1022 30.18 852 25.16 11.2 52.1 38 -2.6 27.4
06:20 1022 30.18 852 25.16 11.8 53.2 37 -2.4 27.6
06:25 1022 30.18 852 25.16 11.6 52.9 40 -1.5 29.4
06:30 1022 30.18 852 25.16 11.2 52.1 41 -1.7 28.9
06:35 1022 30.18 852 25.16 11 51.8 41 -1.5 29.3
06:40 1022 30.18 852 25.16 10.9 51.5 43 -1.2 29.8
06:45 1022 30.18 852 25.16 10.5 50.9 44 -1.2 29.8
06:50 1022 30.18 851 25.13 10.4 50.7 43 -1.5 29.3
06:55 1022 30.18 852 25.16 10.3 50.6 44 -1.2 29.8
07:00 1022 30.18 852 25.16 10.4 50.8 42 -1.8 28.8
07:05 1022 30.18 852 25.16 10.8 51.4 40 -2.4 27.8
07:10 1022 30.18 852 25.16 11.4 52.4 38 -2.4 27.6
07:15 1022 30.18 852 25.16 11.8 53.3 37 -2.4 27.6
07:20 1022 30.18 852 25.16 11.8 53.2 37 -2.4 27.8
07:25 1023 30.21 852 25.16 11.8 53.2 37 -2.4 27.7
07:30 1023 30.21 852 25.16 11.7 53.1 38 -2.2 28
07:35 1023 30.21 852 25.16 11.9 53.5 37 -2.2 28.1
07:40 1023 30.21 852 25.16 11.9 53.4 38 -2 28.5
07:45 1023 30.21 852 25.16 11.6 53 39 -1.7 28.9
07:50 1023 30.21 852 25.16 11.5 52.7 37 -2.5 27.6
07:55 1023 30.21 852 25.16 12.4 54.3 33 -3.2 26.2
08:00 1023 30.21 852 25.16 13 55.3 37 -1.3 29.7
08:05 1023 30.21 852 25.16 12.2 53.9 37 -2 28.4
08:10 1023 30.21 852 25.16 12.3 54.2 37 -2 28.5
08:15 1023 30.21 852 25.16 12.7 54.9 36 -2 28.5
08:20 1023 30.21 852 25.16 13.1 55.5 36 -1.5 29.3
08:25 1023 30.21 852 25.16 13.1 55.5 39 -0.6 31
08:30 1023 30.21 852 25.16 13.1 55.6 39 -0.3 31.4
08:35 1023 30.21 852 25.16 13 55.3 39 -0.5 31
08:40 1023 30.21 852 25.16 13.1 55.6 41 0.2 32.3
08:45 1023 30.21 852 25.16 13.4 56.2 40 0.1 32.2
08:50 1023 30.21 852 25.16 13.6 56.4 38 -0.4 31.2
08:55 1023 30.21 852 25.16 14 57.2 38 -0.2 31.6
09:00 1023 30.21 852 25.16 14.3 57.8 37 -0.1 31.8
09:05 1023 30.21 852 25.16 14.8 58.7 36 -0.1 31.8
09:10 1023 30.21 852 25.16 14.9 58.9 36 0.1 32.1
09:15 1023 30.21 852 25.16 15.4 59.7 36 0.3 32.6
09:20 1023 30.21 852 25.16 16 60.7 34 0.1 32.1
09:25 1023 30.21 852 25.16 16.8 62.2 33 0.5 32.9
09:30 1023 30.21 852 25.16 17.6 63.6 31 0.5 32.9
09:35 1023 30.21 852 25.16 17.5 63.4 31 0.1 32.2
09:40 1023 30.21 852 25.16 17.9 64.1 29 -0.2 31.6
09:45 1023 30.21 852 25.16 18.7 65.6 29 0.2 32.4
09:50 1023 30.21 852 25.16 18.8 65.8 27 -0.4 31.3
09:55 1023 30.21 852 25.16 18.8 65.9 26 -0.9 30.4
10:00 1023 30.21 852 25.16 19.3 66.7 28 0.4 32.7
10:05 1023 30.21 852 25.16 19.6 67.3 28 0.5 32.9
10:10 1023 30.21 852 25.16 19.8 67.6 27 0.4 32.7
10:15 1023 30.21 852 25.16 19.9 67.8 26 0.1 32.2
10:20 1023 30.21 852 25.16 20.3 68.5 25 -0.2 31.6
10:25 1023 30.21 852 25.16 20 68.1 25 -0.4 31.2
10:30 1023 30.21 852 25.16 20.1 68.2 24 -0.7 30.7
10:35 1023 30.21 852 25.16 20.4 68.6 24 -0.9 30.4
10:40 1023 30.21 852 25.16 20.6 69.1 23 -1.1 30
10:45 1023 30.21 852 25.16 20.5 68.8 24 -0.5 31.1
10:50 1023 30.21 852 25.16 20.3 68.6 25 -0.3 31.4
10:55 1023 30.21 852 25.16 20.7 69.3 25 -0 31.9
11:00 1023 30.21 852 25.16 20.1 68.2 26 0.3 32.5
11:05 1023 30.21 852 25.16 20.3 68.6 28 1.5 34.7
11:10 1023 30.21 852 25.16 20.4 68.8 28 1.2 34.2
11:15 1023 30.21 852 25.16 20.5 68.9 26 0.6 33.1
11:20 1023 30.21 852 25.16 20.6 69 28 1.4 34.5
11:25 1023 30.21 852 25.16 20.9 69.7 26 0.8 33.5
11:30 1023 30.21 852 25.16 21.3 70.4 24 0.1 32.2
11:35 1023 30.21 852 25.16 21.5 70.7 24 0.4 32.7
11:40 1023 30.21 852 25.16 21.6 70.9 25 0.8 33.4
11:45 1023 30.21 852 25.16 20.6 69 25 0.2 32.3
11:50 1023 30.21 852 25.16 21.2 70.1 24 -0.2 31.6
11:55 1023 30.21 852 25.16 21.1 70 25 0.6 33.1
12:00 1023 30.21 852 25.16 21.6 70.8 24 0.4 32.8
12:05 1023 30.21 852 25.16 22.1 71.8 23 0.4 32.7
12:10 1023 30.21 852 25.16 21.8 71.2 22 -0.4 31.2
12:15 1022 30.18 852 25.16 21.7 71.1 22 -0.6 30.8
12:20 1022 30.18 852 25.16 22.2 71.9 23 0.4 32.8
12:25 1022 30.18 852 25.16 22.1 71.8 21 -0.8 30.5
12:30 1022 30.18 852 25.16 22.7 72.8 22 -0.1 31.7
12:35 1022 30.18 851 25.13 23.1 73.5 21 -0.5 31.2
12:40 1022 30.18 851 25.13 23.1 73.5 22 0.2 32.4
12:45 1022 30.18 851 25.13 23.3 73.9 21 -0.4 31.4
12:50 1022 30.18 851 25.13 22.7 72.9 20 -0.9 30.4
12:55 1022 30.18 851 25.13 22.7 72.9 22 0.1 32.2
13:00 1022 30.18 851 25.13 22.1 71.8 21 -0.8 30.6
13:05 1022 30.18 851 25.13 23.2 73.7 19 -1.6 29.1
13:10 1022 30.18 851 25.13 23.7 74.7 18 -1.4 29.4
13:15 1022 30.18 851 25.13 23.5 74.2 20 -0.3 31.4
13:20 1022 30.18 851 25.13 23.4 74.2 20 -0.9 30.4
13:25 1022 30.18 851 25.13 24.3 75.8 18 -1.6 29.1
13:30 1022 30.18 851 25.13 24.3 75.7 18 -1.1 30.1
13:35 1022 30.18 851 25.13 24.5 76.1 18 -1.3 29.6
13:40 1021 30.15 851 25.13 23.8 74.8 18 -1.4 29.5
13:45 1021 30.15 851 25.13 24.3 75.7 17 -2.4 27.7
13:50 1021 30.15 851 25.13 24.7 76.5 17 -1.7 28.9
13:55 1021 30.15 850 25.1 24.6 76.3 15 -3.4 25.9
14:00 1021 30.15 850 25.1 24.9 76.8 17 -1.6 29.2
14:05 1021 30.15 850 25.1 25.5 78 16 -1.6 29.1
14:10 1021 30.15 850 25.1 25.5 77.8 17 -1.1 30
14:15 1021 30.15 850 25.1 25.4 77.6 17 -1.3 29.7
14:20 1021 30.15 850 25.1 25.5 77.8 16 -2.1 28.2
14:25 1021 30.15 850 25.1 25.7 78.3 15 -2.5 27.5
14:30 1021 30.15 850 25.1 24.9 76.9 17 -1.9 28.6
14:35 1021 30.15 850 25.1 25 77.1 16 -2 28.3
14:40 1021 30.15 850 25.1 25.4 77.7 15 -2.4 27.6
14:45 1021 30.15 850 25.1 26.5 79.7 15 -1.9 28.6
14:50 1021 30.15 850 25.1 26.4 79.5 15 -1.8 28.8
14:55 1021 30.15 850 25.1 26.7 80.1 15 -2.1 28.1
15:00 1020 30.12 850 25.1 27.3 81.2 13 -3 26.6
15:05 1020 30.12 850 25.1 26.7 80.1 14 -2.3 27.9
15:10 1020 30.12 850 25.1 27.1 80.8 14 -2.3 27.9
15:15 1020 30.12 850 25.1 27.1 80.9 14 -2 28.3
15:20 1020 30.12 849 25.07 25.8 78.4 15 -2.5 27.5
15:25 1020 30.12 849 25.07 25.8 78.4 14 -3.4 26
15:30 1020 30.12 849 25.07 26.7 80.1 14 -3.1 26.4
15:35 1020 30.12 849 25.07 27.3 81.1 14 -2.4 27.6
15:40 1020 30.12 849 25.07 27.7 81.9 14 -2.3 27.9
15:45 1020 30.12 849 25.07 27.6 81.6 14 -2.4 27.6
15:50 1020 30.12 849 25.07 26.7 80.1 15 -2.1 28.1
15:55 1020 30.12 849 25.07 27.1 80.7 14 -2.7 27.2
16:00 1020 30.12 849 25.07 27.3 81.1 15 -1.6 29.2
16:05 1020 30.12 849 25.07 27.3 81.1 14 -1.9 28.6
16:10 1020 30.12 849 25.07 27 80.6 14 -2.8 27
16:15 1020 30.12 849 25.07 27.5 81.5 13 -2.8 26.9
16:20 1020 30.12 849 25.07 27.2 81 13 -3 26.6
16:25 1020 30.12 849 25.07 27.4 81.3 13 -3.4 25.9
16:30 1020 30.12 849 25.07 26.9 80.4 13 -3.6 25.6
16:35 1020 30.12 849 25.07 26.3 79.3 14 -3.3 26
16:40 1020 30.12 849 25.07 26.7 80.1 15 -1.9 28.5
16:45 1020 30.12 849 25.07 27.1 80.8 13 -3.6 25.5
16:50 1020 30.12 849 25.07 27.2 80.9 13 -3.9 25
16:55 1020 30.12 849 25.07 27.5 81.4 13 -3.6 25.5
17:00 1020 30.12 849 25.07 27 80.6 13 -3.6 25.4
17:05 1020 30.12 849 25.07 27 80.6 13 -3.5 25.7
17:10 1020 30.12 849 25.07 26.8 80.2 13 -3.9 25
17:15 1020 30.12 849 25.07 27.2 81 13 -3.6 25.6
17:20 1020 30.12 849 25.07 27.4 81.4 13 -3.2 26.3
17:25 1020 30.12 849 25.07 27.6 81.7 14 -2.3 27.9
17:30 1020 30.12 849 25.07 27.1 80.8 13 -3.6 25.5
17:35 1020 30.12 849 25.07 26.6 79.8 14 -3.2 26.2
17:40 1020 30.12 849 25.07 27 80.6 13 -4 24.9
17:45 1020 30.12 849 25.07 27.1 80.8 13 -3 26.5
17:50 1020 30.12 849 25.07 27 80.5 13 -3.3 26.1
17:55 1020 30.12 849 25.07 26.9 80.3 13 -3.2 26.2
18:00 1020 30.12 849 25.07 27 80.5 14 -2.4 27.6
18:05 1020 30.12 849 25.07 26.8 80.2 14 -2.4 27.6
18:10 1020 30.12 849 25.07 26.2 79.2 15 -2.6 27.3
18:15 1020 30.12 849 25.07 25.7 78.3 17 -1.3 29.7
18:20 1020 30.12 849 25.07 25.1 77.2 17 -1.6 29.1
18:25 1020 30.12 849 25.07 24.7 76.4 17 -1.8 28.8
18:30 1020 30.12 849 25.07 24.6 76.2 17 -1.7 28.9
18:35 1020 30.12 849 25.07 24.5 76.1 17 -1.6 29.1
18:40 1019 30.09 849 25.07 24.4 76 18 -1.4 29.4
18:45 1019 30.09 849 25.07 24.3 75.7 18 -1.2 29.9
18:50 1019 30.09 849 25.07 24 75.3 21 0.4 32.7
18:55 1019 30.09 849 25.07 23.7 74.7 22 1 33.8
19:00 1019 30.09 849 25.07 23.6 74.5 22 0.8 33.4
19:05 1019 30.09 849 25.07 23.4 74.2 23 1.2 34.1
19:10 1019 30.09 849 25.07 23.1 73.6 30 4.6 40.3
19:15 1019 30.09 849 25.07 21.8 71.3 33 5.1 41.2
19:20 1019 30.09 849 25.07 21 69.8 30 3 37.5
19:25 1019 30.09 849 25.07 20.6 69 29 2.2 35.9
19:30 1019 30.09 849 25.07 20.4 68.8 30 2.4 36.2
19:35 1019 30.09 849 25.07 20.2 68.3 27 0.8 33.4
19:40 1019 30.09 849 25.07 19.8 67.6 30 2 35.5
19:45 1019 30.09 849 25.07 19.4 67 31 2 35.6
19:50 1019 30.09 849 25.07 19 66.2 31 1.7 35.1
19:55 1019 30.09 849 25.07 18.4 65.2 33 2.1 35.9
20:00 1019 30.09 849 25.07 17.6 63.7 37 2.7 36.9
20:05 1019 30.09 849 25.07 17.2 62.9 34 1.4 34.6
20:10 1019 30.09 849 25.07 17.6 63.7 32 0.9 33.6
20:15 1019 30.09 849 25.07 17.7 63.8 30 0.1 32.2
20:20 1020 30.12 849 25.07 18 64.4 28 -0.5 31.2
20:25 1020 30.12 849 25.07 18.1 64.5 25 -2.3 27.8
20:30 1020 30.12 849 25.07 18.5 65.3 23 -2.7 27.2
20:35 1020 30.12 849 25.07 18.7 65.7 26 -1 30.1
20:40 1020 30.12 849 25.07 18.2 64.7 27 -1.2 29.8
20:45 1020 30.12 849 25.07 18 64.4 27 -1.2 29.8
20:50 1020 30.12 849 25.07 17.8 64 25 -2.4 27.7
20:55 1020 30.12 849 25.07 17.8 64 26 -2.1 28.3
21:00 1020 30.12 849 25.07 17.5 63.5 27 -1.4 29.4
21:05 1020 30.12 849 25.07 16.9 62.5 29 -1.2 29.8
21:10 1020 30.12 849 25.07 16.4 61.4 29 -1.6 29.2
21:15 1020 30.12 849 25.07 16.2 61.1 28 -2.1 28.3
21:20 1020 30.12 849 25.07 16.5 61.7 29 -1.6 29.1
21:25 1020 30.12 849 25.07 16.4 61.4 28 -2 28.3
21:30 1020 30.12 849 25.07 16.6 61.8 28 -2.1 28.2
21:35 1020 30.12 849 25.07 16.8 62.2 28 -1.7 29
21:40 1020 30.12 849 25.07 16.8 62.2 28 -1.6 29.1
21:45 1020 30.12 849 25.07 16.9 62.4 30 -0.8 30.5
21:50 1020 30.12 849 25.07 17 62.5 28 -1.8 28.8
21:55 1020 30.12 849 25.07 17 62.5 27 -1.9 28.6
22:00 1020 30.12 849 25.07 17 62.6 31 -0.1 31.9
22:05 1020 30.12 849 25.07 17.1 62.8 31 -0.1 31.9
22:10 1020 30.12 849 25.07 16.8 62.2 33 0.4 32.8
22:15 1020 30.12 849 25.07 15.9 60.6 35 0.6 33.1
22:20 1020 30.12 849 25.07 15.3 59.5 35 -0.1 31.9
22:25 1020 30.12 849 25.07 15.2 59.3 36 0.4 32.8
22:30 1020 30.12 849 25.07 15 59 37 0.6 33.1
22:35 1020 30.12 849 25.07 15 59 37 0.7 33.2
22:40 1020 30.12 849 25.07 14.7 58.5 36 -0.1 31.8
22:45 1020 30.12 849 25.07 14.5 58.2 36 -0.1 31.8
22:50 1020 30.12 849 25.07 14.4 58 36 -0.4 31.3
22:55 1020 30.12 849 25.07 14.4 57.9 36 -0.2 31.6
23:00 1020 30.12 849 25.07 14.1 57.3 36 -0.5 31
23:05 1020 30.12 849 25.07 14 57.2 37 -0.5 31.1
23:10 1020 30.12 849 25.07 14 57.2 37 -0.6 31
23:15 1020 30.12 849 25.07 14 57.2 36 -0.8 30.6
23:20 1020 30.12 849 25.07 14.4 57.8 34 -1.2 29.8
23:25 1020 30.12 849 25.07 14.3 57.7 34 -1.2 29.8
23:30 1020 30.12 849 25.07 13.9 57.1 36 -1 30.3
23:35 1020 30.12 849 25.07 13.5 56.3 38 -0.6 31
23:40 1020 30.12 849 25.07 13.4 56 37 -0.9 30.4
23:45 1020 30.12 849 25.07 13.7 56.6 36 -1 30.2
23:50 1020 30.12 849 25.07 13.9 57.1 33 -1.8 28.7
23:55 1020 30.12 849 25.07 14.2 57.6 34 -1.4 29.4
24:00 1020 30.12 849 25.07 14.3 57.7 34 -1.5 29.4